createdAt,value
2018-04-08T00:00:30.608Z,11.83
2018-04-08T00:02:58.159Z,11.77
2018-04-08T00:05:25.751Z,11.58
2018-04-08T00:07:53.342Z,11.59
2018-04-08T00:10:20.892Z,11.88
2018-04-08T00:12:48.464Z,11.64
2018-04-08T00:15:16.006Z,11.50
2018-04-08T00:17:43.575Z,11.43
2018-04-08T00:20:11.174Z,11.64
2018-04-08T00:22:38.772Z,12.03
2018-04-08T00:25:06.333Z,12.12
2018-04-08T00:27:33.898Z,11.64
2018-04-08T00:30:01.537Z,11.32
2018-04-08T00:32:29.080Z,11.20
2018-04-08T00:34:56.624Z,11.05
2018-04-08T00:37:24.197Z,10.94
2018-04-08T00:39:51.749Z,10.81
2018-04-08T00:42:19.333Z,10.79
2018-04-08T00:44:46.896Z,10.93
2018-04-08T00:47:14.467Z,11.08
2018-04-08T00:49:42.023Z,11.18
2018-04-08T00:52:09.587Z,11.07
2018-04-08T00:54:37.139Z,11.57
2018-04-08T00:57:05.057Z,11.63
2018-04-08T00:59:32.622Z,11.57
2018-04-08T01:02:00.159Z,11.20
2018-04-08T01:04:27.748Z,11.03
2018-04-08T01:06:55.312Z,11.26
2018-04-08T01:09:22.860Z,10.90
2018-04-08T01:11:50.472Z,10.66
2018-04-08T01:14:18.021Z,10.49
2018-04-08T01:16:45.564Z,10.37
2018-04-08T01:19:13.118Z,10.48
2018-04-08T01:21:40.668Z,10.45
2018-04-08T01:24:08.249Z,10.93
2018-04-08T01:26:35.810Z,11.27
2018-04-08T01:29:03.414Z,11.05
2018-04-08T01:31:30.969Z,11.00
2018-04-08T01:33:58.506Z,10.70
2018-04-08T01:36:26.098Z,10.52
2018-04-08T01:38:53.671Z,10.30
2018-04-08T01:41:21.372Z,10.16
2018-04-08T01:43:48.913Z,10.19
2018-04-08T01:46:16.504Z,10.04
2018-04-08T01:48:44.056Z,10.01
2018-04-08T01:51:11.609Z,10.30
2018-04-08T01:53:39.221Z,10.19
2018-04-08T01:56:06.777Z,10.07
2018-04-08T01:58:34.328Z,10.05
2018-04-08T02:01:01.938Z,10.35
2018-04-08T02:03:29.518Z,10.30
2018-04-08T02:05:57.055Z,10.11
2018-04-08T02:08:24.663Z,10.30
2018-04-08T02:10:52.208Z,10.20
2018-04-08T02:13:19.745Z,10.06
2018-04-08T02:15:47.304Z,10.06
2018-04-08T02:18:14.857Z,10.17
2018-04-08T02:20:42.465Z,10.68
2018-04-08T02:23:10.011Z,10.53
2018-04-08T02:25:37.580Z,10.62
2018-04-08T02:28:05.190Z,10.42
2018-04-08T02:30:32.737Z,10.36
2018-04-08T02:33:00.347Z,10.13
2018-04-08T02:35:27.897Z,10.16
2018-04-08T02:37:55.434Z,10.42
2018-04-08T02:40:23.040Z,10.16
2018-04-08T02:42:50.588Z,10.05
2018-04-08T02:45:18.129Z,10.44
2018-04-08T02:47:45.710Z,10.48
2018-04-08T02:50:13.255Z,10.07
2018-04-08T02:52:40.829Z,9.87
2018-04-08T02:55:08.392Z,9.91
2018-04-08T02:57:35.997Z,9.86
2018-04-08T03:00:03.558Z,9.97
2018-04-08T03:02:31.113Z,10.16
2018-04-08T03:04:58.674Z,10.07
2018-04-08T03:07:26.231Z,10.24
2018-04-08T03:09:53.789Z,10.68
2018-04-08T03:12:21.418Z,10.49
2018-04-08T03:14:48.984Z,10.17
2018-04-08T03:17:16.615Z,9.96
2018-04-08T03:19:44.192Z,9.81
2018-04-08T03:22:11.752Z,9.70
2018-04-08T03:24:39.291Z,9.62
2018-04-08T03:27:07.263Z,9.63
2018-04-08T03:29:34.815Z,9.77
2018-04-08T03:32:02.363Z,10.24
2018-04-08T03:34:29.961Z,10.22
2018-04-08T03:36:57.520Z,10.03
2018-04-08T03:39:25.083Z,10.16
2018-04-08T03:41:52.642Z,9.99
2018-04-08T03:44:20.196Z,9.98
2018-04-08T03:46:47.759Z,10.25
2018-04-08T03:49:15.309Z,10.19
2018-04-08T03:51:42.886Z,10.08
2018-04-08T03:54:10.507Z,10.05
2018-04-08T03:56:38.069Z,10.12
2018-04-08T03:59:05.622Z,10.12
2018-04-08T04:01:33.204Z,9.81
2018-04-08T04:04:00.760Z,9.63
2018-04-08T04:06:28.374Z,9.44
2018-04-08T04:08:55.915Z,9.38
2018-04-08T04:11:23.455Z,9.33
2018-04-08T04:13:51.045Z,9.25
2018-04-08T04:16:18.609Z,9.12
2018-04-08T04:18:58.029Z,9.16
2018-04-08T04:21:37.473Z,9.46
2018-04-08T04:27:09.302Z,9.29
2018-04-08T04:29:36.923Z,9.28
2018-04-08T04:32:04.476Z,9.36
2018-04-08T04:34:32.032Z,9.54
2018-04-08T04:36:59.652Z,9.29
2018-04-08T04:39:27.197Z,9.06
2018-04-08T04:41:54.752Z,8.95
2018-04-08T04:44:22.658Z,8.94
2018-04-08T04:46:50.208Z,9.02
2018-04-08T04:49:17.756Z,9.08
2018-04-08T04:51:45.319Z,9.01
2018-04-08T04:54:12.894Z,8.98
2018-04-08T04:56:40.442Z,9.50
2018-04-08T04:59:08.086Z,9.33
2018-04-08T05:01:35.639Z,9.20
2018-04-08T05:04:03.203Z,9.14
2018-04-08T05:06:30.781Z,9.05
2018-04-08T05:08:58.334Z,9.42
2018-04-08T05:11:25.947Z,9.65
2018-04-08T05:13:53.531Z,9.79
2018-04-08T05:16:21.076Z,9.97
2018-04-08T05:18:48.647Z,9.67
2018-04-08T05:21:16.192Z,9.64
2018-04-08T05:23:43.760Z,10.10
2018-04-08T05:26:11.329Z,10.61
2018-04-08T05:28:39.288Z,10.42
2018-04-08T05:31:06.832Z,10.44
2018-04-08T05:33:34.394Z,10.48
2018-04-08T05:36:01.976Z,10.71
2018-04-08T05:38:29.531Z,11.01
2018-04-08T05:40:57.127Z,11.40
2018-04-08T05:43:24.693Z,11.56
2018-04-08T05:45:52.259Z,11.49
2018-04-08T05:48:19.812Z,11.66
2018-04-08T05:50:47.390Z,11.27
2018-04-08T05:53:14.983Z,11.30
2018-04-08T05:55:42.542Z,11.30
2018-04-08T05:58:10.074Z,11.47
2018-04-08T06:00:37.672Z,11.74
2018-04-08T06:03:05.243Z,11.93
2018-04-08T06:05:32.796Z,11.89
2018-04-08T06:08:00.390Z,11.58
2018-04-08T06:10:27.953Z,11.33
2018-04-08T06:12:55.516Z,11.63
2018-04-08T06:15:23.072Z,11.85
2018-04-08T06:17:50.602Z,12.02
2018-04-08T06:20:18.211Z,12.37
2018-04-08T06:22:45.765Z,12.82
2018-04-08T06:25:13.325Z,12.91
2018-04-08T06:27:41.263Z,12.64
2018-04-08T06:30:08.836Z,12.55
2018-04-08T06:32:36.395Z,12.67
2018-04-08T06:35:04.002Z,12.78
2018-04-08T06:37:31.566Z,12.91
2018-04-08T06:39:59.149Z,13.07
2018-04-08T06:42:26.737Z,13.26
2018-04-08T06:44:54.593Z,13.12
2018-04-08T06:47:22.204Z,13.02
2018-04-08T06:49:49.806Z,13.02
2018-04-08T06:52:17.365Z,13.21
2018-04-08T06:54:44.926Z,13.15
2018-04-08T06:57:12.865Z,13.09
2018-04-08T06:59:40.467Z,13.43
2018-04-08T07:02:08.002Z,13.78
2018-04-08T07:04:36.134Z,13.87
2018-04-08T07:07:03.679Z,14.01
2018-04-08T07:09:31.249Z,13.61
2018-04-08T07:11:58.830Z,13.86
2018-04-08T07:14:26.395Z,14.18
2018-04-08T07:16:54.036Z,14.44
2018-04-08T07:19:21.597Z,14.46
2018-04-08T07:21:49.144Z,14.20
2018-04-08T07:24:16.720Z,14.36
2018-04-08T07:26:44.311Z,14.02
2018-04-08T07:29:11.851Z,14.03
2018-04-08T07:31:39.424Z,13.92
2018-04-08T07:34:07.376Z,13.79
2018-04-08T07:36:34.918Z,14.01
2018-04-08T07:39:02.480Z,14.09
2018-04-08T07:41:30.092Z,13.89
2018-04-08T07:43:57.673Z,14.35
2018-04-08T07:46:25.269Z,14.30
2018-04-08T07:48:52.851Z,14.53
2018-04-08T07:51:20.400Z,14.60
2018-04-08T07:53:47.997Z,14.97
2018-04-08T07:56:15.580Z,15.28
2018-04-08T07:58:43.175Z,15.34
2018-04-08T08:01:10.800Z,15.56
2018-04-08T08:03:38.351Z,15.52
2018-04-08T08:06:05.901Z,16.29
2018-04-08T08:08:33.473Z,16.45
2018-04-08T08:11:01.019Z,16.35
2018-04-08T08:13:28.587Z,17.34
2018-04-08T08:15:56.135Z,17.59
2018-04-08T08:18:23.866Z,17.74
2018-04-08T08:20:51.402Z,17.26
2018-04-08T08:23:18.958Z,18.11
2018-04-08T08:25:46.579Z,17.87
2018-04-08T08:28:14.124Z,17.46
2018-04-08T08:30:41.658Z,17.58
2018-04-08T08:33:09.260Z,18.16
2018-04-08T08:35:36.849Z,18.58
2018-04-08T08:38:04.435Z,18.55
2018-04-08T08:40:31.996Z,18.10
2018-04-08T08:42:59.563Z,18.40
2018-04-08T08:45:27.132Z,18.71
2018-04-08T08:47:54.699Z,19.14
2018-04-08T08:50:22.285Z,19.50
2018-04-08T08:52:49.840Z,19.21
2018-04-08T08:55:17.428Z,19.44
2018-04-08T08:57:44.977Z,19.61
2018-04-08T09:00:12.548Z,19.78
2018-04-08T09:02:40.102Z,19.28
2018-04-08T09:05:07.680Z,19.75
2018-04-08T09:07:35.236Z,19.24
2018-04-08T09:10:02.863Z,18.66
2018-04-08T09:12:30.413Z,18.98
2018-04-08T09:14:57.958Z,18.72
2018-04-08T09:17:25.598Z,19.10
2018-04-08T09:23:00.508Z,19.55
2018-04-08T09:25:28.596Z,19.66
2018-04-08T09:27:56.127Z,19.58
2018-04-08T09:30:23.678Z,19.97
2018-04-08T09:32:51.219Z,20.22
2018-04-08T09:35:18.860Z,20.53
2018-04-08T09:37:46.407Z,20.28
2018-04-08T09:40:13.948Z,20.19
2018-04-08T09:42:41.593Z,19.59
2018-04-08T09:45:09.188Z,19.63
2018-04-08T09:47:36.756Z,20.11
2018-04-08T09:50:04.319Z,19.69
2018-04-08T09:52:31.901Z,20.01
2018-04-08T09:54:59.475Z,20.13
2018-04-08T09:57:30.047Z,20.30
2018-04-08T09:59:57.605Z,19.97
2018-04-08T10:05:29.275Z,20.50
2018-04-08T10:07:56.870Z,20.62
2018-04-08T10:10:24.420Z,20.39
2018-04-08T10:12:51.985Z,20.53
2018-04-08T10:15:19.595Z,20.50
2018-04-08T10:17:47.148Z,20.63
2018-04-08T10:20:14.694Z,20.46
2018-04-08T10:22:42.278Z,21.17
2018-04-08T10:25:09.840Z,20.74
2018-04-08T10:27:37.411Z,20.71
2018-04-08T10:30:04.961Z,21.26
2018-04-08T10:32:32.536Z,20.93
2018-04-08T10:35:00.169Z,20.54
2018-04-08T10:37:27.728Z,20.82
2018-04-08T10:39:55.327Z,20.84
2018-04-08T10:42:22.881Z,20.89
2018-04-08T10:44:50.450Z,20.62
2018-04-08T10:47:18.068Z,21.33
2018-04-08T10:49:45.612Z,21.39
2018-04-08T10:52:13.163Z,21.91
2018-04-08T10:54:40.731Z,21.57
2018-04-08T10:57:08.672Z,20.93
2018-04-08T10:59:36.233Z,21.14
2018-04-08T11:02:03.784Z,20.63
2018-04-08T11:04:31.356Z,21.28
2018-04-08T11:06:58.891Z,21.40
2018-04-08T11:09:26.464Z,21.55
2018-04-08T11:11:54.020Z,21.90
2018-04-08T11:14:21.601Z,21.76
2018-04-08T11:16:49.159Z,22.60
2018-04-08T11:19:16.743Z,22.59
2018-04-08T11:21:44.289Z,22.59
2018-04-08T11:24:11.840Z,23.03
2018-04-08T11:26:39.404Z,22.94
2018-04-08T11:29:06.981Z,22.09
2018-04-08T11:31:34.594Z,22.41
2018-04-08T11:34:02.122Z,22.71
2018-04-08T11:36:29.679Z,23.00
2018-04-08T11:38:57.272Z,22.64
2018-04-08T11:41:24.830Z,22.55
2018-04-08T11:43:52.396Z,22.62
2018-04-08T11:46:19.968Z,22.30
2018-04-08T11:48:47.516Z,22.66
2018-04-08T11:51:15.101Z,22.81
2018-04-08T11:53:42.648Z,22.77
2018-04-08T11:56:10.217Z,22.70
2018-04-08T11:58:37.812Z,23.23
2018-04-08T12:01:05.425Z,22.82
2018-04-08T12:03:33.005Z,22.12
2018-04-08T12:06:00.585Z,21.89
2018-04-08T12:08:28.118Z,22.58
2018-04-08T12:10:55.664Z,22.32
2018-04-08T12:13:23.236Z,22.37
2018-04-08T12:15:50.851Z,22.71
2018-04-08T12:18:18.405Z,22.33
2018-04-08T12:20:45.993Z,22.22
2018-04-08T12:23:13.582Z,22.45
2018-04-08T12:25:41.151Z,22.74
2018-04-08T12:28:09.089Z,22.75
2018-04-08T12:30:36.635Z,22.48
2018-04-08T12:33:04.226Z,23.11
2018-04-08T12:35:31.801Z,22.67
2018-04-08T12:37:59.353Z,23.20
2018-04-08T12:40:26.940Z,22.75
2018-04-08T12:42:54.496Z,22.99
2018-04-08T12:45:22.034Z,23.24
2018-04-08T12:47:49.607Z,24.15
2018-04-08T12:50:17.178Z,23.95
2018-04-08T12:52:44.792Z,24.35
2018-04-08T12:55:12.365Z,23.88
2018-04-08T12:57:39.928Z,24.41
2018-04-08T13:00:07.521Z,23.81
2018-04-08T13:02:35.067Z,24.65
2018-04-08T13:05:02.993Z,24.60
2018-04-08T13:07:30.548Z,23.03
2018-04-08T13:09:58.098Z,23.98
2018-04-08T13:12:25.680Z,23.98
2018-04-08T13:14:53.251Z,23.94
2018-04-08T13:17:20.810Z,24.13
2018-04-08T13:19:48.360Z,24.80
2018-04-08T13:22:15.949Z,23.67
2018-04-08T13:24:43.506Z,23.65
2018-04-08T13:27:11.069Z,22.82
2018-04-08T13:29:38.644Z,22.78
2018-04-08T13:32:06.209Z,23.60
2018-04-08T13:34:33.812Z,22.69
2018-04-08T13:37:01.369Z,22.35
2018-04-08T13:39:28.925Z,23.84
2018-04-08T13:41:56.488Z,23.62
2018-04-08T13:44:24.097Z,23.80
2018-04-08T13:46:51.641Z,24.06
2018-04-08T13:49:19.180Z,24.28
2018-04-08T13:51:46.774Z,24.74
2018-04-08T13:54:14.321Z,24.26
2018-04-08T13:56:41.874Z,24.77
2018-04-08T13:59:09.480Z,25.46
2018-04-08T14:01:37.044Z,24.52
2018-04-08T14:04:04.584Z,24.72
2018-04-08T14:06:32.150Z,24.85
2018-04-08T14:08:59.764Z,25.04
2018-04-08T14:11:27.326Z,24.46
2018-04-08T14:13:54.863Z,24.47
2018-04-08T14:16:22.445Z,23.81
2018-04-08T14:18:49.983Z,23.91
2018-04-08T14:21:17.576Z,23.81
2018-04-08T14:23:45.132Z,24.23
2018-04-08T14:26:12.688Z,24.49
2018-04-08T14:28:40.288Z,23.06
2018-04-08T14:31:07.835Z,23.78
2018-04-08T14:33:35.389Z,23.42
2018-04-08T14:36:02.985Z,23.02
2018-04-08T14:38:30.548Z,23.15
2018-04-08T14:40:58.590Z,23.12
2018-04-08T14:43:26.149Z,23.66
2018-04-08T14:45:53.687Z,22.92
2018-04-08T14:48:21.286Z,22.80
2018-04-08T14:50:48.838Z,22.83
2018-04-08T14:53:16.405Z,23.36
2018-04-08T14:55:43.994Z,23.29
2018-04-08T14:58:11.552Z,23.38
2018-04-08T15:00:39.208Z,22.77
2018-04-08T15:03:06.790Z,22.87
2018-04-08T15:05:34.353Z,22.97
2018-04-08T15:08:01.936Z,22.95
2018-04-08T15:10:29.504Z,23.00
2018-04-08T15:12:57.089Z,23.37
2018-04-08T15:15:24.648Z,23.09
2018-04-08T15:17:52.228Z,23.48
2018-04-08T15:20:19.775Z,23.27
2018-04-08T15:22:47.342Z,23.29
2018-04-08T15:25:14.934Z,23.07
2018-04-08T15:27:42.470Z,22.75
2018-04-08T15:30:10.019Z,23.14
2018-04-08T15:32:37.589Z,23.20
2018-04-08T15:35:05.141Z,23.28
2018-04-08T15:37:32.742Z,23.02
2018-04-08T15:40:00.288Z,23.21
2018-04-08T15:42:27.879Z,23.52
2018-04-08T15:44:55.465Z,23.46
2018-04-08T15:47:22.998Z,23.96
2018-04-08T15:49:50.554Z,23.30
2018-04-08T15:52:18.139Z,23.40
2018-04-08T15:54:45.685Z,24.13
2018-04-08T15:57:13.288Z,24.25
2018-04-08T15:59:40.833Z,24.29
2018-04-08T16:02:08.394Z,24.02
2018-04-08T16:04:36.112Z,23.42
2018-04-08T16:07:03.674Z,23.95
2018-04-08T16:09:31.240Z,23.87
2018-04-08T16:11:58.807Z,23.98
2018-04-08T16:14:26.360Z,23.57
2018-04-08T16:16:53.974Z,23.69
2018-04-08T16:19:21.543Z,23.47
2018-04-08T16:21:49.124Z,23.42
2018-04-08T16:24:16.698Z,23.79
2018-04-08T16:26:44.266Z,23.68
2018-04-08T16:29:11.824Z,23.48
2018-04-08T16:31:39.382Z,23.28
2018-04-08T16:34:06.956Z,23.13
2018-04-08T16:36:34.539Z,22.88
2018-04-08T16:39:02.093Z,22.86
2018-04-08T16:41:29.663Z,22.75
2018-04-08T16:43:57.235Z,22.81
2018-04-08T16:46:24.809Z,22.72
2018-04-08T16:48:52.362Z,22.68
2018-04-08T16:51:19.929Z,22.67
2018-04-08T16:53:47.577Z,22.74
2018-04-08T16:56:15.131Z,22.62
2018-04-08T16:58:42.712Z,22.62
2018-04-08T17:01:10.265Z,22.58
2018-04-08T17:03:37.831Z,22.38
2018-04-08T17:06:05.390Z,22.57
2018-04-08T17:08:32.984Z,22.01
2018-04-08T17:11:00.529Z,22.39
2018-04-08T17:13:28.132Z,22.48
2018-04-08T17:15:56.072Z,22.46
2018-04-08T17:18:23.612Z,22.55
2018-04-08T17:20:51.162Z,22.42
2018-04-08T17:23:18.779Z,21.99
2018-04-08T17:25:46.343Z,22.19
2018-04-08T17:28:13.905Z,22.22
2018-04-08T17:30:41.506Z,22.25
2018-04-08T17:33:09.059Z,22.15
2018-04-08T17:35:36.600Z,21.97
2018-04-08T17:38:04.155Z,22.00
2018-04-08T17:40:31.700Z,22.02
2018-04-08T17:42:59.308Z,21.76
2018-04-08T17:45:26.923Z,21.52
2018-04-08T17:47:54.482Z,21.29
2018-04-08T17:50:22.061Z,21.17
2018-04-08T17:52:49.615Z,21.21
2018-04-08T17:55:17.208Z,21.03
2018-04-08T17:57:44.829Z,20.11
2018-04-08T18:00:12.370Z,19.90
2018-04-08T18:02:39.923Z,19.74
2018-04-08T18:05:07.500Z,19.45
2018-04-08T18:07:35.043Z,19.39
2018-04-08T18:10:02.654Z,19.38
2018-04-08T18:12:30.216Z,19.30
2018-04-08T18:14:57.762Z,19.20
2018-04-08T18:17:25.352Z,19.20
2018-04-08T18:19:52.887Z,19.41
2018-04-08T18:22:20.869Z,19.36
2018-04-08T18:24:48.436Z,18.82
2018-04-08T18:27:15.981Z,18.55
2018-04-08T18:29:43.562Z,18.34
2018-04-08T18:32:11.100Z,18.23
2018-04-08T18:34:38.648Z,17.93
2018-04-08T18:37:06.339Z,17.75
2018-04-08T18:39:33.885Z,17.54
2018-04-08T18:42:02.019Z,17.40
2018-04-08T18:44:29.940Z,17.32
2018-04-08T18:46:57.488Z,17.28
2018-04-08T18:49:25.029Z,17.25
2018-04-08T18:51:52.591Z,17.21
2018-04-08T18:54:20.163Z,17.22
2018-04-08T18:56:47.726Z,17.24
2018-04-08T18:59:15.277Z,17.12
2018-04-08T19:01:42.849Z,17.28
2018-04-08T19:04:10.378Z,17.33
2018-04-08T19:06:37.968Z,17.23
2018-04-08T19:09:06.295Z,17.25
2018-04-08T19:11:33.836Z,17.01
2018-04-08T19:14:01.769Z,16.94
2018-04-08T19:16:29.310Z,16.91
2018-04-08T19:18:56.853Z,16.79
2018-04-08T19:21:24.429Z,16.80
2018-04-08T19:23:51.958Z,16.72
2018-04-08T19:26:19.556Z,16.64
2018-04-08T19:28:47.157Z,16.62
2018-04-08T19:31:14.710Z,16.61
2018-04-08T19:33:42.265Z,16.91
2018-04-08T19:36:09.843Z,17.28
2018-04-08T19:38:37.690Z,17.56
2018-04-08T19:41:05.290Z,17.59
2018-04-08T19:43:32.836Z,17.46
2018-04-08T19:46:00.425Z,17.24
2018-04-08T19:48:27.962Z,17.00
2018-04-08T19:50:55.953Z,16.73
2018-04-08T19:53:23.616Z,16.62
2018-04-08T19:55:51.151Z,16.69
2018-04-08T19:58:18.761Z,16.73
2018-04-08T20:00:46.309Z,16.69
2018-04-08T20:03:13.866Z,16.88
2018-04-08T20:05:41.436Z,16.60
2018-04-08T20:08:08.967Z,16.35
2018-04-08T20:10:36.578Z,16.63
2018-04-08T20:13:04.115Z,16.81
2018-04-08T20:15:31.662Z,16.88
2018-04-08T20:17:59.231Z,17.05
2018-04-08T20:20:26.802Z,17.06
2018-04-08T20:22:54.405Z,17.18
2018-04-08T20:25:21.954Z,17.20
2018-04-08T20:27:49.508Z,17.21
2018-04-08T20:30:17.083Z,17.17
2018-04-08T20:32:44.635Z,17.15
2018-04-08T20:35:12.244Z,16.99
2018-04-08T20:37:39.793Z,16.98
2018-04-08T20:40:07.351Z,17.02
2018-04-08T20:42:34.951Z,16.91
2018-04-08T20:45:02.507Z,16.75
2018-04-08T20:47:30.060Z,16.80
2018-04-08T20:49:57.640Z,16.64
2018-04-08T20:52:25.201Z,16.55
2018-04-08T20:54:53.262Z,16.39
2018-04-08T20:57:20.822Z,16.33
2018-04-08T20:59:48.466Z,16.22
2018-04-08T21:02:16.037Z,16.02
2018-04-08T21:04:43.603Z,15.93
2018-04-08T21:07:11.143Z,15.84
2018-04-08T21:09:38.708Z,15.79
2018-04-08T21:14:04.387Z,15.61
2018-04-08T21:16:31.946Z,15.55
2018-04-08T21:18:59.518Z,15.44
2018-04-08T21:21:27.066Z,15.38
2018-04-08T21:23:55.063Z,15.37
2018-04-08T21:26:22.612Z,15.14
2018-04-08T21:28:50.151Z,15.15
2018-04-08T21:31:17.721Z,14.88
2018-04-08T21:33:45.278Z,14.96
2018-04-08T21:36:12.853Z,15.04
2018-04-08T21:38:40.405Z,14.95
2018-04-08T21:41:08.009Z,14.85
2018-04-08T21:43:35.564Z,14.72
2018-04-08T21:46:03.103Z,14.75
2018-04-08T21:48:30.704Z,14.68
2018-04-08T21:50:58.264Z,14.59
2018-04-08T21:53:25.814Z,14.55
2018-04-08T21:55:53.411Z,14.50
2018-04-08T21:58:20.981Z,14.48
2018-04-08T22:00:48.550Z,14.49
2018-04-08T22:03:16.110Z,14.47
2018-04-08T22:05:43.708Z,14.46
2018-04-08T22:08:11.267Z,14.34
2018-04-08T22:10:38.803Z,14.39
2018-04-08T22:13:06.380Z,14.30
2018-04-08T22:15:33.963Z,14.24
2018-04-08T22:18:01.550Z,14.14
2018-04-08T22:20:29.159Z,14.11
2018-04-08T22:22:56.723Z,14.01
2018-04-08T22:25:24.280Z,14.05
2018-04-08T22:27:51.844Z,13.97
2018-04-08T22:30:19.399Z,13.92
2018-04-08T22:32:47.011Z,13.82
2018-04-08T22:35:15.492Z,13.85
2018-04-08T22:37:43.053Z,13.84
2018-04-08T22:40:10.678Z,13.79
2018-04-08T22:42:38.244Z,13.76
2018-04-08T22:45:05.805Z,13.71
2018-04-08T22:47:33.420Z,13.58
2018-04-08T22:50:00.972Z,13.61
2018-04-08T22:52:28.536Z,13.60
2018-04-08T22:54:56.661Z,13.54
2018-04-08T22:57:24.248Z,13.30
2018-04-08T22:59:51.901Z,13.36
2018-04-08T23:02:19.447Z,13.27
2018-04-08T23:04:47.001Z,13.07
2018-04-08T23:07:14.571Z,13.10
2018-04-08T23:09:42.137Z,13.22
2018-04-08T23:12:09.731Z,13.14
2018-04-08T23:14:37.276Z,13.12
2018-04-08T23:17:04.828Z,13.15
2018-04-08T23:19:32.431Z,13.02
2018-04-08T23:21:59.972Z,12.85
2018-04-08T23:24:27.520Z,12.65
2018-04-08T23:26:55.082Z,12.71
2018-04-08T23:29:22.666Z,12.64
2018-04-08T23:31:50.220Z,12.74
2018-04-08T23:34:17.783Z,12.76
2018-04-08T23:36:45.355Z,12.54
2018-04-08T23:39:12.928Z,12.77
2018-04-08T23:41:40.909Z,12.62
2018-04-08T23:44:08.476Z,12.70
2018-04-08T23:46:36.063Z,12.82
2018-04-08T23:49:03.660Z,12.59
2018-04-08T23:51:31.213Z,12.40
2018-04-08T23:53:58.782Z,12.34
2018-04-08T23:56:26.360Z,12.30
2018-04-08T23:58:53.907Z,12.26
